Airport View

Enter AWOS ICAO identifier for current METAR.

ex. KFNL

KCWI 221756Z AUTO 03012KT 10SM SCT040 SCT060 26/14 A3012 RMK AO2 SLP197 T02560144 10256 20194 51002

22 Jul 2019 18:52

Frequency: 125.525

Phone: 563-243-8934

Other Area AWOS: KSFY - KDVN - KMLI - KSQI

TAF KMLI 221720Z 2218/2318 02011G18KT P6SM SCT035 FM230100 34006KT P6SM SKC